Time,TemperatureF,DewpointF,PressureIn,WindDirection,WindDirectionDegrees,WindSpeedMPH,WindSpeedGustMPH,Humidity,HourlyPrecipIn,Conditions,Clouds,dailyrainin,SoftwareType,DateUTC
2013-09-20 00:02:00,67.0,56.0,29.44,North,-999,0.0,0.0,68,0.00,,,-99.99,,2013-09-20 07:02:00,
2013-09-20 00:53:00,62.0,56.0,29.43,North,0,0.0,1.0,81,0.00,,,-99.99,,2013-09-20 07:53:00,
2013-09-20 01:02:00,62.0,56.0,29.43,North,0,0.0,1.0,81,0.00,,,-99.99,,2013-09-20 08:02:00,
2013-09-20 03:23:00,60.0,55.0,29.43,North,-999,0.0,0.0,85,0.00,,,-99.99,,2013-09-20 10:23:00,
2013-09-20 03:32:00,60.0,55.0,29.43,North,-999,0.0,0.0,85,0.00,,,-99.99,,2013-09-20 10:32:00,
2013-09-20 03:53:00,59.0,55.0,29.42,North,-999,0.0,0.0,87,0.00,,,-99.99,,2013-09-20 10:53:00,
2013-09-20 04:03:00,59.0,55.0,29.42,North,-999,0.0,0.0,87,0.00,,,-99.99,,2013-09-20 11:03:00,
2013-09-20 04:52:00,60.0,55.0,29.43,North,-999,0.0,0.0,85,0.00,,,-99.99,,2013-09-20 11:52:00,
2013-09-20 05:02:00,60.0,55.0,29.43,North,-999,0.0,0.0,85,0.00,,,-99.99,,2013-09-20 12:02:00,
2013-09-20 05:52:00,62.0,56.0,29.45,North,-999,0.0,0.0,82,0.00,,,-99.99,,2013-09-20 12:52:00,
2013-09-20 06:02:00,62.0,56.0,29.45,North,-999,0.0,0.0,82,0.00,,,-99.99,,2013-09-20 13:02:00,
2013-09-20 08:54:00,65.0,53.0,29.49,North,-999,0.0,0.0,66,0.00,,,-99.99,,2013-09-20 15:54:00,
2013-09-20 09:04:00,65.0,53.0,29.49,North,-999,0.0,0.0,66,0.00,,,-99.99,,2013-09-20 16:04:00,
2013-09-20 09:53:00,60.0,55.0,29.52,North,0,0.0,1.0,84,0.00,,,-99.99,,2013-09-20 16:53:00,
2013-09-20 10:03:00,60.0,55.0,29.52,North,0,0.0,1.0,84,0.00,,,-99.99,,2013-09-20 17:03:00,
2013-09-20 10:23:00,60.0,56.0,29.53,ESE,110,4.0,5.0,86,0.00,,,-99.99,,2013-09-20 17:23:00,
2013-09-20 10:34:00,60.0,56.0,29.53,ESE,110,4.0,5.0,86,0.00,,,-99.99,,2013-09-20 17:34:00,
2013-09-20 10:53:00,59.0,55.0,29.55,SE,130,2.0,3.0,87,0.00,,,-99.99,,2013-09-20 17:53:00,
2013-09-20 11:02:00,59.0,55.0,29.55,SE,130,2.0,3.0,87,0.00,,,-99.99,,2013-09-20 18:02:00,
2013-09-20 11:52:00,62.0,56.0,29.56,North,-999,0.0,0.0,82,0.00,,,-99.99,,2013-09-20 18:52:00,
2013-09-20 12:02:00,62.0,56.0,29.56,North,-999,0.0,0.0,82,0.00,,,-99.99,,2013-09-20 19:02:00,
2013-09-20 12:22:00,65.0,58.0,29.56,North,0,0.0,1.0,77,0.00,,,-99.99,,2013-09-20 19:22:00,
2013-09-20 12:32:00,65.0,58.0,29.56,North,0,0.0,1.0,77,0.00,,,-99.99,,2013-09-20 19:32:00,
2013-09-20 12:53:00,66.0,57.0,29.56,North,-999,0.0,0.0,74,0.00,,,-99.99,,2013-09-20 19:53:00,
2013-09-20 13:03:00,66.0,57.0,29.56,North,-999,0.0,0.0,74,0.00,,,-99.99,,2013-09-20 20:03:00,
2013-09-20 13:22:00,67.0,57.0,29.56,North,-999,0.0,0.0,71,0.00,,,-99.99,,2013-09-20 20:22:00,
2013-09-20 13:32:00,67.0,57.0,29.56,North,-999,0.0,0.0,71,0.00,,,-99.99,,2013-09-20 20:32:00,
2013-09-20 13:52:00,69.0,58.0,29.56,North,-999,0.0,0.0,67,0.00,,,-99.99,,2013-09-20 20:52:00,
2013-09-20 14:02:00,69.0,58.0,29.56,North,-999,0.0,0.0,67,0.00,,,-99.99,,2013-09-20 21:02:00,
2013-09-20 14:21:00,70.0,59.0,29.55,North,0,0.0,1.0,67,0.00,,,-99.99,,2013-09-20 21:21:00,
2013-09-20 14:34:00,70.0,59.0,29.55,North,0,0.0,1.0,67,0.00,,,-99.99,,2013-09-20 21:34:00,
2013-09-20 14:54:00,71.0,59.0,29.55,North,-999,0.0,0.0,65,0.00,,,-99.99,,2013-09-20 21:54:00,
2013-09-20 15:04:00,71.0,59.0,29.55,North,-999,0.0,0.0,65,0.00,,,-99.99,,2013-09-20 22:04:00,
2013-09-20 15:23:00,69.0,58.0,29.55,WSW,250,4.0,4.0,69,0.00,,,-99.99,,2013-09-20 22:23:00,
2013-09-20 15:33:00,69.0,58.0,29.55,WSW,250,4.0,4.0,69,0.00,,,-99.99,,2013-09-20 22:33:00,
2013-09-20 15:53:00,68.0,58.0,29.55,WSW,250,2.0,2.0,71,0.00,,,-99.99,,2013-09-20 22:53:00,
2013-09-20 16:02:00,68.0,58.0,29.55,WSW,250,2.0,2.0,71,0.00,,,-99.99,,2013-09-20 23:02:00,
2013-09-20 16:22:00,66.0,57.0,29.54,North,-999,0.0,0.0,74,0.00,,,-99.99,,2013-09-20 23:22:00,
2013-09-20 16:34:00,66.0,57.0,29.54,North,-999,0.0,0.0,74,0.00,,,-99.99,,2013-09-20 23:34:00,
2013-09-20 16:53:00,65.0,58.0,29.54,WNW,290,3.0,5.0,77,0.00,,,-99.99,,2013-09-20 23:53:00,
2013-09-20 17:02:00,65.0,58.0,29.54,WNW,290,3.0,5.0,77,0.00,,,-99.99,,2013-09-21 00:02:00,
2013-09-20 17:21:00,64.0,58.0,29.53,WNW,300,2.0,2.0,80,0.00,,,-99.99,,2013-09-21 00:21:00,
2013-09-20 17:32:00,64.0,58.0,29.53,WNW,300,2.0,2.0,80,0.00,,,-99.99,,2013-09-21 00:32:00,
2013-09-20 17:52:00,64.0,58.0,29.53,North,-999,0.0,0.0,80,0.00,,,-99.99,,2013-09-21 00:52:00,
2013-09-20 18:01:00,64.0,58.0,29.53,North,-999,0.0,0.0,80,0.00,,,-99.99,,2013-09-21 01:01:00,
2013-09-20 18:22:00,63.0,57.0,29.53,North,0,0.0,4.0,80,0.00,,,-99.99,,2013-09-21 01:22:00,
2013-09-20 18:52:00,59.0,55.0,29.55,NW,320,1.0,1.0,88,0.00,,,-99.99,,2013-09-21 01:52:00,
2013-09-20 19:02:00,59.0,55.0,29.55,NW,320,1.0,1.0,88,0.00,,,-99.99,,2013-09-21 02:02:00,
2013-09-20 19:22:00,57.0,55.0,29.56,NW,320,5.0,6.0,92,0.00,,,-99.99,,2013-09-21 02:22:00,
2013-09-20 19:32:00,57.0,55.0,29.56,NW,320,5.0,6.0,92,0.00,,,-99.99,,2013-09-21 02:32:00,
2013-09-20 19:52:00,57.0,55.0,29.57,NE,40,2.0,3.0,94,0.00,,,-99.99,,2013-09-21 02:52:00,
2013-09-20 20:02:00,57.0,55.0,29.57,NE,40,2.0,3.0,94,0.00,,,-99.99,,2013-09-21 03:02:00,
2013-09-20 20:22:00,56.0,55.0,29.60,NNW,330,4.0,4.0,95,0.00,,,-99.99,,2013-09-21 03:22:00,
2013-09-20 20:34:00,56.0,55.0,29.60,NNW,330,4.0,4.0,95,0.00,,,-99.99,,2013-09-21 03:34:00,
2013-09-20 20:55:00,56.0,55.0,29.62,NNE,30,2.0,2.0,96,0.00,,,-99.99,,2013-09-21 03:55:00,
2013-09-20 21:04:00,56.0,55.0,29.62,NNE,30,2.0,2.0,96,0.00,,,-99.99,,2013-09-21 04:04:00,
2013-09-20 21:24:00,56.0,55.0,29.64,NNW,330,4.0,4.0,96,0.00,,,-99.99,,2013-09-21 04:24:00,
2013-09-20 21:33:00,56.0,55.0,29.64,NNW,330,4.0,4.0,96,0.00,,,-99.99,,2013-09-21 04:33:00,
2013-09-20 21:54:00,56.0,55.0,29.65,NNW,330,3.0,3.0,96,0.00,,,-99.99,,2013-09-21 04:54:00,
2013-09-20 22:03:00,56.0,55.0,29.65,NNW,330,3.0,3.0,96,0.00,,,-99.99,,2013-09-21 05:03:00,
2013-09-20 22:23:00,56.0,55.0,29.65,NNW,340,3.0,4.0,97,0.00,,,-99.99,,2013-09-21 05:23:00,
2013-09-20 22:34:00,56.0,55.0,29.65,NNW,340,3.0,4.0,97,0.00,,,-99.99,,2013-09-21 05:34:00,
2013-09-20 22:52:00,57.0,56.0,29.66,North,-999,0.0,0.0,97,0.00,,,-99.99,,2013-09-21 05:52:00,
2013-09-20 23:02:00,57.0,56.0,29.66,North,-999,0.0,0.0,97,0.00,,,-99.99,,2013-09-21 06:02:00,
2013-09-20 23:22:00,55.0,54.0,29.66,North,-999,0.0,0.0,96,0.00,,,-99.99,,2013-09-21 06:22:00,
2013-09-20 23:32:00,55.0,54.0,29.66,North,-999,0.0,0.0,96,0.00,,,-99.99,,2013-09-21 06:32:00,
2013-09-20 23:52:00,55.0,54.0,29.67,North,-999,0.0,0.0,97,0.00,,,-99.99,,2013-09-21 06:52:00,